KHRL/HRL METAR and TAF weather

Enter ICAO airport designator
Station Type Date Time Source
KHRL METAR 2021/09/16 21:05 UTC NOAA

KHRL 162105Z 07008KT 10SM SCT065 34/22 A2978 RMK AO2 T03390222


Station Type Date Time Source
KHRL Decoded METAR 2021/09/16 21:05 UTC NOAA

RIO GRANDE VALLEY, TX, United States (KHRL) 26-13N 97-39W 10M
Sep 16, 2021 - 05:05 PM EDT / 2021.09.16 2105 UTC
Wind: from the ENE (070 degrees) at 9 MPH (8 KT):0
Visibility: 10 mile(s):0
Sky conditions: partly cloudy
Temperature: 93.0 F (33.9 C)
Heat index: 100.8 F (38.2 C):1
Dew Point: 72.0 F (22.2 C)
Relative Humidity: 50%
Pressure (altimeter): 29.78 in. Hg (1008 hPa)
ob: KHRL 162105Z 07008KT 10SM SCT065 34/22 A2978 RMK AO2 T03390222
cycle: 21

Station Type Date Time Source
KHRL TAF 2021/09/16 18:22 UTC NOAA

TAF KHRL 161720Z 1618/1718 00000KT P6SM FEW035
FM162300 09010KT P6SM SCT250
FM170900 00000KT P6SM BKN250 PROB30 1712/1713 4SM -SHRA OVC025
FM171300 VRB03KT P6SM SCT100 PROB30 1713/1718 4SM -SHRA BKN100

Example: see airport list